createdAt,value
2018-03-15T00:04:34.358Z,5.20
2018-03-15T00:07:03.201Z,5.30
2018-03-15T00:09:32.057Z,5.30
2018-03-15T00:12:00.922Z,5.20
2018-03-15T00:14:30.551Z,5.10
2018-03-15T00:16:59.390Z,5.00
2018-03-15T00:19:29.013Z,4.90
2018-03-15T00:21:59.155Z,4.90
2018-03-15T00:24:27.990Z,4.80
2018-03-15T00:26:56.829Z,4.90
2018-03-15T00:29:25.690Z,4.90
2018-03-15T00:31:55.292Z,4.70
2018-03-15T00:34:24.939Z,4.80
2018-03-15T00:36:53.774Z,4.70
2018-03-15T00:39:22.615Z,4.70
2018-03-15T00:41:51.455Z,4.70
2018-03-15T00:44:20.285Z,4.70
2018-03-15T00:46:49.382Z,4.70
2018-03-15T00:49:18.226Z,4.70
2018-03-15T00:51:47.064Z,4.70
2018-03-15T00:54:15.910Z,4.80
2018-03-15T00:56:45.536Z,4.80
2018-03-15T00:59:15.143Z,4.80
2018-03-15T01:01:43.986Z,4.70
2018-03-15T01:04:12.830Z,4.80
2018-03-15T01:06:42.441Z,4.60
2018-03-15T01:09:12.045Z,4.60
2018-03-15T01:11:41.650Z,4.60
2018-03-15T01:14:11.255Z,4.60
2018-03-15T01:16:40.863Z,4.60
2018-03-15T01:19:10.446Z,4.60
2018-03-15T01:21:39.306Z,4.60
2018-03-15T01:24:08.150Z,4.60
2018-03-15T01:26:37.755Z,4.50
2018-03-15T01:29:07.368Z,4.50
2018-03-15T01:31:36.982Z,4.50
2018-03-15T01:34:06.426Z,4.40
2018-03-15T01:36:35.265Z,4.50
2018-03-15T01:39:04.436Z,4.50
2018-03-15T01:41:33.389Z,4.50
2018-03-15T01:44:02.236Z,4.50
2018-03-15T01:46:31.898Z,4.50
2018-03-15T01:49:00.743Z,4.40
2018-03-15T01:51:29.755Z,4.50
2018-03-15T01:53:58.602Z,4.50
2018-03-15T01:56:27.442Z,4.50
2018-03-15T01:58:56.383Z,4.40
2018-03-15T02:01:25.173Z,4.40
2018-03-15T02:03:54.034Z,4.40
2018-03-15T02:06:23.007Z,4.30
2018-03-15T02:08:51.868Z,4.30
2018-03-15T02:11:21.456Z,4.30
2018-03-15T02:13:50.301Z,4.20
2018-03-15T02:16:19.134Z,4.20
2018-03-15T02:18:47.974Z,4.10
2018-03-15T02:21:16.830Z,4.10
2018-03-15T02:23:46.469Z,4.00
2018-03-15T02:26:15.307Z,3.90
2018-03-15T02:28:44.153Z,3.90
2018-03-15T02:31:12.984Z,3.90
2018-03-15T02:33:43.341Z,3.90
2018-03-15T02:36:12.953Z,4.00
2018-03-15T02:38:41.786Z,3.90
2018-03-15T02:41:10.642Z,4.10
2018-03-15T02:43:39.586Z,4.00
2018-03-15T02:46:08.447Z,4.00
2018-03-15T02:48:37.283Z,4.00
2018-03-15T02:51:06.922Z,4.00
2018-03-15T02:53:35.758Z,4.00
2018-03-15T02:56:04.599Z,4.00
2018-03-15T02:58:33.514Z,4.10
2018-03-15T03:01:02.378Z,4.00
2018-03-15T03:03:31.987Z,4.00
2018-03-15T03:06:00.888Z,3.90
2018-03-15T03:08:29.711Z,3.90
2018-03-15T03:10:59.196Z,3.80
2018-03-15T03:13:28.035Z,3.90
2018-03-15T03:15:57.645Z,3.90
2018-03-15T03:18:27.286Z,3.90
2018-03-15T03:20:56.138Z,3.80
2018-03-15T03:23:24.970Z,3.90
2018-03-15T03:25:53.818Z,3.90
2018-03-15T03:28:23.443Z,3.80
2018-03-15T03:30:52.311Z,3.70
2018-03-15T03:33:21.119Z,3.80
2018-03-15T03:35:50.730Z,3.80
2018-03-15T03:38:19.585Z,3.70
2018-03-15T03:40:48.421Z,3.70
2018-03-15T03:43:17.262Z,3.70
2018-03-15T03:45:46.102Z,3.70
2018-03-15T03:48:14.942Z,3.70
2018-03-15T03:50:43.777Z,3.70
2018-03-15T03:53:12.627Z,3.70
2018-03-15T03:55:41.462Z,3.70
2018-03-15T03:58:10.352Z,3.70
2018-03-15T04:00:39.911Z,3.70
2018-03-15T04:03:08.742Z,3.60
2018-03-15T04:05:39.126Z,3.70
2018-03-15T04:08:07.958Z,3.70
2018-03-15T04:10:36.798Z,3.80
2018-03-15T04:13:05.638Z,3.80
2018-03-15T04:15:34.469Z,3.90
2018-03-15T04:18:03.344Z,3.90
2018-03-15T04:20:32.317Z,3.90
2018-03-15T04:23:01.947Z,4.00
2018-03-15T04:25:31.109Z,3.90
2018-03-15T04:28:00.058Z,4.00
2018-03-15T04:30:29.156Z,4.00
2018-03-15T04:32:57.982Z,4.00
2018-03-15T04:35:26.824Z,4.00
2018-03-15T04:37:55.665Z,3.90
2018-03-15T04:40:24.498Z,3.90
2018-03-15T04:42:53.339Z,3.90
2018-03-15T04:45:22.955Z,4.00
2018-03-15T04:47:51.787Z,3.90
2018-03-15T04:50:20.629Z,3.90
2018-03-15T04:52:49.476Z,3.90
2018-03-15T04:55:18.334Z,3.90
2018-03-15T04:57:47.961Z,4.00
2018-03-15T05:00:17.211Z,4.00
2018-03-15T05:02:46.838Z,3.90
2018-03-15T05:05:15.686Z,3.80
2018-03-15T05:07:44.530Z,3.80
2018-03-15T05:10:14.142Z,3.80
2018-03-15T05:12:43.754Z,3.80
2018-03-15T05:15:13.338Z,3.80
2018-03-15T05:17:43.083Z,3.80
2018-03-15T05:20:11.918Z,3.80
2018-03-15T05:22:40.774Z,3.80
2018-03-15T05:25:09.632Z,3.80
2018-03-15T05:27:39.246Z,3.90
2018-03-15T05:30:08.867Z,3.90
2018-03-15T05:32:38.481Z,3.90
2018-03-15T05:35:08.112Z,3.90
2018-03-15T05:37:36.956Z,3.90
2018-03-15T05:40:06.557Z,3.80
2018-03-15T05:42:36.173Z,3.80
2018-03-15T05:45:05.789Z,3.70
2018-03-15T05:47:35.645Z,3.60
2018-03-15T05:50:04.486Z,3.60
2018-03-15T05:52:34.394Z,3.70
2018-03-15T05:55:04.006Z,3.80
2018-03-15T05:57:33.606Z,3.80
2018-03-15T06:00:04.145Z,3.80
2018-03-15T06:02:33.759Z,3.80
2018-03-15T06:05:04.123Z,3.70
2018-03-15T06:07:33.878Z,3.70
2018-03-15T06:10:02.695Z,3.60
2018-03-15T06:12:32.307Z,3.80
2018-03-15T06:15:01.916Z,3.80
2018-03-15T06:17:31.700Z,3.80
2018-03-15T06:20:00.546Z,3.70
2018-03-15T06:22:29.390Z,3.90
2018-03-15T06:24:58.343Z,3.90
2018-03-15T06:27:27.166Z,4.00
2018-03-15T06:29:56.012Z,3.90
2018-03-15T06:32:24.970Z,3.90
2018-03-15T06:34:54.580Z,4.10
2018-03-15T06:37:24.201Z,4.00
2018-03-15T06:39:53.046Z,4.00
2018-03-15T06:42:21.878Z,4.20
2018-03-15T06:44:50.736Z,4.20
2018-03-15T06:47:20.325Z,4.40
2018-03-15T06:49:49.167Z,4.30
2018-03-15T06:52:18.019Z,4.40
2018-03-15T06:54:47.639Z,4.50
2018-03-15T06:57:17.272Z,4.50
2018-03-15T06:59:46.101Z,4.50
2018-03-15T07:02:14.920Z,4.50
2018-03-15T07:04:43.755Z,4.60
2018-03-15T07:07:12.691Z,4.70
2018-03-15T07:09:41.485Z,4.80
2018-03-15T07:12:10.322Z,4.80
2018-03-15T07:14:39.157Z,5.00
2018-03-15T07:17:07.997Z,5.10
2018-03-15T07:19:36.834Z,5.00
2018-03-15T07:22:05.682Z,5.10
2018-03-15T07:24:34.533Z,5.20
2018-03-15T07:27:03.391Z,5.30
2018-03-15T07:29:32.983Z,5.50
2018-03-15T07:32:02.606Z,5.50
2018-03-15T07:34:31.458Z,5.50
2018-03-15T07:37:00.298Z,5.60
2018-03-15T07:39:29.902Z,5.70
2018-03-15T07:41:58.742Z,5.70
2018-03-15T07:44:27.585Z,5.80
2018-03-15T07:46:56.394Z,5.80
2018-03-15T07:49:25.250Z,5.80
2018-03-15T07:51:54.098Z,5.80
2018-03-15T07:54:22.933Z,5.80
2018-03-15T07:56:51.774Z,5.90
2018-03-15T07:59:20.619Z,5.90
2018-03-15T08:01:49.450Z,6.00
2018-03-15T08:04:18.300Z,6.10
2018-03-15T08:06:47.133Z,6.30
2018-03-15T08:09:16.022Z,6.20
2018-03-15T08:11:44.868Z,6.20
2018-03-15T08:14:13.714Z,6.30
2018-03-15T08:16:42.694Z,6.40
2018-03-15T08:19:11.554Z,6.50
2018-03-15T08:21:41.144Z,6.60
2018-03-15T08:24:11.493Z,6.50
2018-03-15T08:26:41.122Z,6.60
2018-03-15T08:29:09.968Z,6.60
2018-03-15T08:31:38.831Z,6.70
2018-03-15T08:34:07.683Z,6.90
2018-03-15T08:36:36.514Z,7.10
2018-03-15T08:39:05.338Z,7.30
2018-03-15T08:41:34.374Z,7.40
2018-03-15T08:44:03.213Z,7.40
2018-03-15T08:46:32.836Z,7.60
2018-03-15T08:49:02.510Z,7.70
2018-03-15T08:51:31.330Z,7.70
2018-03-15T08:54:00.938Z,8.00
2018-03-15T08:56:30.327Z,8.00
2018-03-15T08:58:59.248Z,8.20
2018-03-15T09:01:28.861Z,8.80
2018-03-15T09:03:57.731Z,8.70
2018-03-15T09:06:27.335Z,9.00
2018-03-15T09:08:56.197Z,9.00
2018-03-15T09:11:25.010Z,9.30
2018-03-15T09:13:53.889Z,9.40
2018-03-15T09:16:22.736Z,9.70
2018-03-15T09:18:51.622Z,9.90
2018-03-15T09:21:20.419Z,10.10
2018-03-15T09:23:49.270Z,10.50
2018-03-15T09:26:18.108Z,10.90
2018-03-15T09:28:47.729Z,11.70
2018-03-15T09:31:17.389Z,11.80
2018-03-15T09:33:46.255Z,11.70
2018-03-15T09:36:15.859Z,12.00
2018-03-15T09:38:44.712Z,12.30
2018-03-15T09:41:14.317Z,12.70
2018-03-15T09:43:43.980Z,12.90
2018-03-15T09:46:12.877Z,12.90
2018-03-15T09:48:41.711Z,13.20
2018-03-15T09:51:11.377Z,13.80
2018-03-15T09:53:40.942Z,14.30
2018-03-15T09:56:09.806Z,14.20
2018-03-15T09:58:39.414Z,15.50
2018-03-15T10:01:08.599Z,15.50
2018-03-15T10:03:37.437Z,16.10
2018-03-15T10:06:06.274Z,16.60
2018-03-15T10:08:35.138Z,16.90
2018-03-15T10:11:03.967Z,17.20
2018-03-15T10:13:32.810Z,17.80
2018-03-15T10:16:01.645Z,18.30
2018-03-15T10:18:30.525Z,18.90
2018-03-15T10:20:59.343Z,19.40
2018-03-15T10:23:28.186Z,19.60
2018-03-15T10:25:57.254Z,19.40
2018-03-15T10:28:27.009Z,19.50
2018-03-15T10:30:56.094Z,19.90
2018-03-15T10:33:31.292Z,20.10
2018-03-15T10:36:00.130Z,20.00
2018-03-15T10:38:28.986Z,19.90
2018-03-15T10:40:57.837Z,19.90
2018-03-15T10:43:26.747Z,19.50
2018-03-15T10:45:55.586Z,19.70
2018-03-15T10:48:24.430Z,20.30
2018-03-15T10:50:53.287Z,20.30
2018-03-15T10:53:22.131Z,19.80
2018-03-15T10:55:51.766Z,19.30
2018-03-15T10:58:20.606Z,19.20
2018-03-15T11:00:55.243Z,18.80
2018-03-15T11:03:30.707Z,18.20
2018-03-15T11:06:06.142Z,18.50
2018-03-15T11:08:35.926Z,18.40
2018-03-15T11:11:05.556Z,17.80
2018-03-15T11:13:34.412Z,17.70
2018-03-15T11:16:03.281Z,18.40
2018-03-15T11:18:32.143Z,19.70
2018-03-15T11:21:01.090Z,20.30
2018-03-15T11:23:30.726Z,21.00
2018-03-15T11:25:59.580Z,21.00
2018-03-15T11:28:29.255Z,21.10
2018-03-15T11:30:58.129Z,21.10
2018-03-15T11:33:26.980Z,21.00
2018-03-15T11:35:56.595Z,21.20
2018-03-15T11:38:25.456Z,21.20
2018-03-15T11:40:55.797Z,20.30
2018-03-15T11:43:25.908Z,19.80
2018-03-15T11:45:55.510Z,18.90
2018-03-15T11:48:25.152Z,18.30
2018-03-15T11:50:54.006Z,18.30
2018-03-15T11:53:22.856Z,18.50
2018-03-15T11:55:51.714Z,19.10
2018-03-15T11:58:21.334Z,20.30
2018-03-15T12:00:50.946Z,20.80
2018-03-15T12:03:19.817Z,20.80
2018-03-15T12:05:49.426Z,20.90
2018-03-15T12:08:18.315Z,20.80
2018-03-15T12:10:47.164Z,21.10
2018-03-15T12:13:16.806Z,21.20
2018-03-15T12:15:46.394Z,20.90
2018-03-15T12:18:15.782Z,20.90
2018-03-15T12:20:46.163Z,20.60
2018-03-15T12:23:14.993Z,20.70
2018-03-15T12:25:43.833Z,20.50
2018-03-15T12:28:12.696Z,20.00
2018-03-15T12:30:42.323Z,18.30
2018-03-15T12:33:11.598Z,18.30
2018-03-15T12:35:41.222Z,17.30
2018-03-15T12:38:10.837Z,17.00
2018-03-15T12:40:39.687Z,16.90
2018-03-15T12:43:08.556Z,16.50
2018-03-15T12:45:37.406Z,16.10
2018-03-15T12:48:06.265Z,15.70
2018-03-15T12:50:35.926Z,15.40
2018-03-15T12:53:04.784Z,15.40
2018-03-15T12:55:34.402Z,15.30
2018-03-15T12:58:03.250Z,15.30
2018-03-15T13:00:32.081Z,15.40
2018-03-15T13:03:00.946Z,15.50
2018-03-15T13:05:30.567Z,15.40
2018-03-15T13:08:00.195Z,15.50
2018-03-15T13:10:29.810Z,15.50
2018-03-15T13:12:59.434Z,15.60
2018-03-15T13:15:28.291Z,15.60
2018-03-15T13:17:57.146Z,15.70
2018-03-15T13:20:26.040Z,15.80
2018-03-15T13:22:55.005Z,15.70
2018-03-15T13:25:23.846Z,15.50
2018-03-15T13:27:52.686Z,15.30
2018-03-15T13:30:21.613Z,15.30
2018-03-15T13:32:50.445Z,15.20
2018-03-15T13:35:20.084Z,15.10
2018-03-15T13:37:48.929Z,15.00
2018-03-15T13:40:18.572Z,15.30
2018-03-15T13:42:47.417Z,15.30
2018-03-15T13:45:16.261Z,15.20
2018-03-15T13:47:45.261Z,15.10
2018-03-15T13:50:14.109Z,14.90
2018-03-15T13:52:42.970Z,14.80
2018-03-15T13:55:11.828Z,14.90
2018-03-15T13:57:41.270Z,14.80
2018-03-15T14:00:11.427Z,14.50
2018-03-15T14:02:40.274Z,14.50
2018-03-15T14:05:09.117Z,14.60
2018-03-15T14:07:37.982Z,14.50
2018-03-15T14:10:06.794Z,14.50
2018-03-15T14:12:35.706Z,14.50
2018-03-15T14:15:05.344Z,14.60
2018-03-15T14:17:34.186Z,14.50
2018-03-15T14:20:03.801Z,14.40
2018-03-15T14:22:33.447Z,14.20
2018-03-15T14:25:02.288Z,14.20
2018-03-15T14:27:31.265Z,14.20
2018-03-15T14:30:00.286Z,14.20
2018-03-15T14:32:29.917Z,14.20
2018-03-15T14:34:58.808Z,14.20
2018-03-15T14:37:27.640Z,14.30
2018-03-15T14:39:56.491Z,14.30
2018-03-15T14:42:25.362Z,14.30
2018-03-15T14:44:54.207Z,14.20
2018-03-15T14:47:23.582Z,14.10
2018-03-15T14:49:52.443Z,14.10
2018-03-15T14:52:21.290Z,13.90
2018-03-15T14:54:50.143Z,13.90
2018-03-15T14:57:19.022Z,13.90
2018-03-15T14:59:47.862Z,13.80
2018-03-15T15:02:16.729Z,13.80
2018-03-15T15:04:45.581Z,13.70
2018-03-15T15:07:14.430Z,13.50
2018-03-15T15:09:43.473Z,13.50
2018-03-15T15:12:14.746Z,13.30
2018-03-15T15:14:44.395Z,13.30
2018-03-15T15:17:13.262Z,13.30
2018-03-15T15:19:43.418Z,13.40
2018-03-15T15:22:12.282Z,13.30
2018-03-15T15:24:41.187Z,13.30
2018-03-15T15:27:10.044Z,13.30
2018-03-15T15:29:39.650Z,13.20
2018-03-15T15:32:09.297Z,13.10
2018-03-15T15:34:38.153Z,13.10
2018-03-15T15:37:07.763Z,13.00
2018-03-15T15:39:36.643Z,12.90
2018-03-15T15:42:05.502Z,12.90
2018-03-15T15:44:34.460Z,12.80
2018-03-15T15:47:03.316Z,12.80
2018-03-15T15:49:32.954Z,12.60
2018-03-15T15:52:01.845Z,12.60
2018-03-15T15:54:30.739Z,12.50
2018-03-15T15:56:59.615Z,12.50
2018-03-15T15:59:29.234Z,12.50
2018-03-15T16:01:58.122Z,12.40
2018-03-15T16:04:26.963Z,12.50
2018-03-15T16:06:56.599Z,12.50
2018-03-15T16:09:26.215Z,12.50
2018-03-15T16:11:55.856Z,12.50
2018-03-15T16:14:24.727Z,12.40
2018-03-15T16:16:54.346Z,12.40
2018-03-15T16:19:23.172Z,12.30
2018-03-15T16:21:52.030Z,12.40
2018-03-15T16:24:20.867Z,12.40
2018-03-15T16:26:49.777Z,12.40
2018-03-15T16:29:19.392Z,12.30
2018-03-15T16:31:49.024Z,12.30
2018-03-15T16:34:17.886Z,12.20
2018-03-15T16:36:47.517Z,12.30
2018-03-15T16:39:16.355Z,12.20
2018-03-15T16:41:45.196Z,12.20
2018-03-15T16:44:14.050Z,12.20
2018-03-15T16:46:43.701Z,11.90
2018-03-15T16:49:12.545Z,11.90
2018-03-15T16:51:42.146Z,11.80
2018-03-15T16:54:11.811Z,11.60
2018-03-15T16:56:40.694Z,11.60
2018-03-15T16:59:09.570Z,11.60
2018-03-15T17:01:38.424Z,11.50
2018-03-15T17:04:07.311Z,11.50
2018-03-15T17:06:36.145Z,11.60
2018-03-15T17:09:05.102Z,11.60
2018-03-15T17:11:34.002Z,11.50
2018-03-15T17:14:02.868Z,11.50
2018-03-15T17:16:31.888Z,11.50
2018-03-15T17:19:00.762Z,11.50
2018-03-15T17:21:29.668Z,11.40
2018-03-15T17:23:58.495Z,11.30
2018-03-15T17:26:27.342Z,11.30
2018-03-15T17:28:56.193Z,11.30
2018-03-15T17:31:25.140Z,11.20
2018-03-15T17:33:54.002Z,11.10
2018-03-15T17:36:23.051Z,10.90
2018-03-15T17:38:51.874Z,10.80
2018-03-15T17:41:20.757Z,10.80
2018-03-15T17:43:50.363Z,10.80
2018-03-15T17:46:19.251Z,10.70
2018-03-15T17:48:48.898Z,10.80
2018-03-15T17:51:17.743Z,10.70
2018-03-15T17:53:47.383Z,10.80
2018-03-15T17:56:16.226Z,10.70
2018-03-15T17:58:46.590Z,10.70
2018-03-15T18:01:15.450Z,10.70
2018-03-15T18:03:45.091Z,10.80
2018-03-15T18:06:13.943Z,10.70
2018-03-15T18:08:44.516Z,10.70
2018-03-15T18:11:14.062Z,10.70
2018-03-15T18:13:43.633Z,10.60
2018-03-15T18:16:12.508Z,10.60
2018-03-15T18:18:42.141Z,10.50
2018-03-15T18:21:11.007Z,10.50
2018-03-15T18:23:41.509Z,10.50
2018-03-15T18:26:11.123Z,10.50
2018-03-15T18:28:40.765Z,10.50
2018-03-15T18:31:09.663Z,10.40
2018-03-15T18:33:38.624Z,10.50
2018-03-15T18:36:07.501Z,10.40
2018-03-15T18:38:37.141Z,10.40
2018-03-15T18:41:06.020Z,10.40
2018-03-15T18:43:35.382Z,10.40
2018-03-15T18:46:04.251Z,10.30
2018-03-15T18:48:33.109Z,10.30
2018-03-15T18:51:02.033Z,10.30
2018-03-15T18:53:30.914Z,10.20
2018-03-15T18:55:59.798Z,10.20
2018-03-15T18:58:28.639Z,10.20
2018-03-15T19:00:58.261Z,10.20
2018-03-15T19:03:27.879Z,10.10
2018-03-15T19:05:56.748Z,10.10
2018-03-15T19:08:26.542Z,10.10
2018-03-15T19:10:55.407Z,10.00
2018-03-15T19:13:25.039Z,10.00
2018-03-15T19:15:53.893Z,9.90
2018-03-15T19:18:22.744Z,10.00
2018-03-15T19:20:51.606Z,10.00
2018-03-15T19:23:21.221Z,9.90
2018-03-15T19:25:50.209Z,9.90
2018-03-15T19:28:19.054Z,9.90
2018-03-15T19:30:47.886Z,9.90
2018-03-15T19:33:16.760Z,9.80
2018-03-15T19:35:47.228Z,9.90
2018-03-15T19:38:16.085Z,9.90
2018-03-15T19:40:45.684Z,10.00
2018-03-15T19:43:15.312Z,10.10
2018-03-15T19:45:44.169Z,10.00
2018-03-15T19:48:13.785Z,10.10
2018-03-15T19:50:43.424Z,10.20
2018-03-15T19:53:12.311Z,10.10
2018-03-15T19:55:41.167Z,10.10
2018-03-15T19:58:10.848Z,10.20
2018-03-15T20:00:39.705Z,10.10
2018-03-15T20:03:08.602Z,10.20
2018-03-15T20:05:38.247Z,10.10
2018-03-15T20:08:07.090Z,10.00
2018-03-15T20:10:35.982Z,10.00
2018-03-15T20:13:04.825Z,9.90
2018-03-15T20:15:40.113Z,10.00
2018-03-15T20:18:08.967Z,9.90
2018-03-15T20:20:38.595Z,9.90
2018-03-15T20:23:13.233Z,9.90
2018-03-15T20:25:42.059Z,9.90
2018-03-15T20:28:17.331Z,9.90
2018-03-15T20:30:46.214Z,9.80
2018-03-15T20:33:21.441Z,10.00
2018-03-15T20:35:51.066Z,9.90
2018-03-15T20:38:20.695Z,9.90
2018-03-15T20:40:55.316Z,9.90
2018-03-15T20:43:24.119Z,9.90
2018-03-15T20:45:59.216Z,9.90
2018-03-15T20:48:34.461Z,9.80
2018-03-15T20:51:04.067Z,9.80
2018-03-15T20:53:33.680Z,9.70
2018-03-15T20:56:03.297Z,9.70
2018-03-15T20:58:32.912Z,9.70
2018-03-15T21:01:01.764Z,9.70
2018-03-15T21:03:31.366Z,9.70
2018-03-15T21:06:01.062Z,9.70
2018-03-15T21:08:30.668Z,9.70
2018-03-15T21:10:59.532Z,9.70
2018-03-15T21:13:28.406Z,9.70
2018-03-15T21:15:57.695Z,9.60
2018-03-15T21:18:26.540Z,9.60
2018-03-15T21:20:56.167Z,9.70
2018-03-15T21:23:24.985Z,9.60
2018-03-15T21:25:53.830Z,9.60
2018-03-15T21:28:23.475Z,9.60
2018-03-15T21:30:52.329Z,9.50
2018-03-15T21:33:21.959Z,9.60
2018-03-15T21:35:50.802Z,9.50
2018-03-15T21:38:19.732Z,9.60
2018-03-15T21:40:49.335Z,9.50
2018-03-15T21:43:18.204Z,9.50
2018-03-15T21:45:47.862Z,9.40
2018-03-15T21:48:16.738Z,9.30
2018-03-15T21:50:45.614Z,9.30
2018-03-15T21:53:14.465Z,9.20
2018-03-15T21:55:43.334Z,9.00
2018-03-15T21:58:12.193Z,9.00
2018-03-15T22:00:41.018Z,8.90
2018-03-15T22:03:09.878Z,8.80
2018-03-15T22:05:38.756Z,8.80
2018-03-15T22:08:07.584Z,8.80
2018-03-15T22:10:36.452Z,8.80
2018-03-15T22:13:05.301Z,8.80
2018-03-15T22:15:34.154Z,8.70
2018-03-15T22:18:03.765Z,8.60
2018-03-15T22:20:33.386Z,8.50
2018-03-15T22:23:02.228Z,8.50
2018-03-15T22:25:31.081Z,8.50
2018-03-15T22:28:00.001Z,8.50
2018-03-15T22:30:28.843Z,8.40
2018-03-15T22:32:57.674Z,8.40
2018-03-15T22:35:26.519Z,8.30
2018-03-15T22:37:55.371Z,8.30
2018-03-15T22:40:24.992Z,8.30
2018-03-15T22:42:54.605Z,8.30
2018-03-15T22:45:24.238Z,8.20
2018-03-15T22:47:53.078Z,8.20
2018-03-15T22:50:22.856Z,8.20
2018-03-15T22:52:51.712Z,8.20
2018-03-15T22:55:21.338Z,8.20
2018-03-15T22:57:50.142Z,8.20
2018-03-15T23:00:18.986Z,8.20
2018-03-15T23:02:48.609Z,8.20
2018-03-15T23:05:17.903Z,8.10
2018-03-15T23:07:46.734Z,8.20
2018-03-15T23:10:15.594Z,8.20
2018-03-15T23:12:44.498Z,8.20
2018-03-15T23:15:13.343Z,8.10
2018-03-15T23:17:42.953Z,8.10
2018-03-15T23:20:12.606Z,8.10
2018-03-15T23:22:42.211Z,8.00
2018-03-15T23:25:11.038Z,8.00
2018-03-15T23:27:39.920Z,8.00
2018-03-15T23:30:08.779Z,8.00
2018-03-15T23:32:37.616Z,8.00
2018-03-15T23:35:07.230Z,8.00
2018-03-15T23:37:36.810Z,8.00
2018-03-15T23:40:05.819Z,7.90
2018-03-15T23:42:34.629Z,7.80
2018-03-15T23:45:04.253Z,7.80
2018-03-15T23:47:33.883Z,7.90
2018-03-15T23:50:02.711Z,7.80
2018-03-15T23:52:31.550Z,7.80
2018-03-15T23:55:00.375Z,7.90
2018-03-15T23:57:29.207Z,7.90
2018-03-15T23:59:58.918Z,7.80
